Time;durP1;ratioP1;P1;durP2;ratioP2;P2;SDS_P1;SDS_P2;PMS_P1;PMS_P2;Temp;Humidity;BMP_temperature;BMP_pressure;BME280_temperature;BME280_humidity;BME280_pressure;Samples;Min_cycle;Max_cycle;Signal;HPM_P1;HPM_P2
2023/10/03 00:01:22;;;;;;;;;;;;;;;;;;5089316;28;20341;-77
2023/10/03 00:03:52;;;;;;;;;;;;;;;;;;5090265;28;19951;-77
2023/10/03 00:06:18;;;;;;;;;;;;;;;;;;5090512;28;20318;-76
2023/10/03 00:08:45;;;;;;;;;;;;;;;;;;5090411;28;19909;-77
2023/10/03 00:11:12;;;;;;;;;;;;;;;;;;5090044;28;19916;-77
2023/10/03 00:13:38;;;;;;;;;;;;;;;;;;5090353;28;19909;-77
2023/10/03 00:16:04;;;;;;;;;;;;;;;;;;5101653;28;19926;-77
2023/10/03 00:18:30;;;;;;;;;;;;;;;;;;5110523;28;20041;-77
2023/10/03 00:20:56;;;;;;;;;;;;;;;;;;5110556;28;19955;-77
2023/10/03 00:23:22;;;;;;;;;;;;;;;;;;5110089;28;19908;-77
2023/10/03 00:25:48;;;;;;;;;;;;;;;;;;5110521;28;19908;-76
2023/10/03 00:28:14;;;;;;;;;;;;;;;;;;5079781;28;19987;-77
2023/10/03 00:30:40;;;;;;;;;;;;;;;;;;5096406;28;19950;-76
2023/10/03 00:33:10;;;;;;;;;;;;;;;;;;5097258;28;19912;-76
2023/10/03 00:35:36;;;;;;;;;;;;;;;;;;5078556;28;20318;-76
2023/10/03 00:38:07;;;;;;;;;;;;;;;;;;5078107;28;19916;-75
2023/10/03 00:40:34;;;;;;;;;;;;;;;;;;5096714;28;19940;-76
2023/10/03 00:43:01;;;;;;;;;;;;;;;;;;5096750;28;20466;-76
2023/10/03 00:45:27;;;;;;;;;;;;;;;;;;5096277;28;19912;-76
2023/10/03 00:47:53;;;;;;;;;;;;;;;;;;5096477;28;20253;-75
2023/10/03 00:50:20;;;;;;;;;;;;;;;;;;5096640;28;20406;-75
2023/10/03 00:52:46;;;;;;;;;;;;;;;;;;5096031;28;19987;-75
2023/10/03 00:55:12;;;;;;;;;;;;;;;;;;5096271;28;20394;-76
2023/10/03 00:57:37;;;;;;;;;;;;;;;;;;5096249;28;19912;-75
2023/10/03 01:00:16;;;;;;;;;;;;;;;;;;5077645;28;19908;-76
2023/10/03 01:02:42;;;;;;;;;;;;;;;;;;5077999;28;20279;-76
2023/10/03 01:05:16;;;;;;;;;;;;;;;;;;5096169;28;19908;-76
2023/10/03 01:07:42;;;;;;;;;;;;;;;;;;5096615;28;19909;-76
2023/10/03 01:10:08;;;;;;;;;;;;;;;;;;5096048;28;19915;-77
2023/10/03 01:12:35;;;;;;;;;;;;;;;;;;5096147;28;20294;-76
2023/10/03 01:15:05;;;;;;;;;;;;;;;;;;5095746;28;20364;-76
2023/10/03 01:17:33;;;;;;;;;;;;;;;;;;5096022;28;19961;-76
2023/10/03 01:20:01;;;;;;;385.35;228.68;;;;;;;;;;5076548;28;20437;-77
2023/10/03 01:22:27;;;;;;;;;;;;;;;;;;5095823;28;20512;-77
2023/10/03 01:24:54;;;;;;;423.48;210.77;;;;;;;;;;5094562;28;20465;-77
2023/10/03 01:27:20;;;;;;;;;;;;;;;;;;5095599;28;20016;-76
2023/10/03 01:29:46;;;;;;;;;;;;;;;;;;5095678;28;19957;-76
2023/10/03 01:32:11;;;;;;;;;;;;;;;;;;5095668;28;19939;-76
2023/10/03 01:34:37;;;;;;;;;;;;;;;;;;5095079;28;19951;-77
2023/10/03 01:37:03;;;;;;;;;;;;;;;;;;5095437;28;19919;-76
2023/10/03 01:39:30;;;;;;;;;;;;;;;;;;5094579;28;19904;-77
2023/10/03 01:41:56;;;;;;;;;;;;;;;;;;5095067;28;19904;-77
2023/10/03 01:44:23;;;;;;;;;;;;;;;;;;5095494;28;19904;-77
2023/10/03 01:46:50;;;;;;;;;;;;;;;;;;5095312;28;19951;-76
2023/10/03 01:49:16;;;;;;;;;;;;;;;;;;5094898;28;19965;-77
2023/10/03 01:51:43;;;;;;;;;;;;;;;;;;5095265;28;20302;-77
2023/10/03 01:54:09;;;;;;;;;;;;;;;;;;5077022;28;19912;-77
2023/10/03 01:56:35;;;;;;;;;;;;;;;;;;5094700;28;19951;-76
2023/10/03 01:59:01;;;;;;;;;;;;;;;;;;5095069;28;19943;-77
2023/10/03 02:01:28;;;;;;;;;;;;;;;;;;5076863;28;19908;-76
2023/10/03 02:03:55;;;;;;;;;;;;;;;;;;5094593;28;20372;-77
2023/10/03 02:06:21;;;;;;;;;;;;;;;;;;5094964;28;19917;-77
2023/10/03 02:08:47;;;;;;;;;;;;;;;;;;5094754;28;19911;-76
2023/10/03 02:11:13;;;;;;;;;;;;;;;;;;5094893;28;19908;-76
2023/10/03 02:13:41;;;;;;;;;;;;;;;;;;5094796;28;20267;-76
2023/10/03 02:16:07;;;;;;;;;;;;;;;;;;5094333;28;19919;-76
2023/10/03 02:18:33;;;;;;;;;;;;;;;;;;5095157;28;19904;-76
2023/10/03 02:21:03;;;;;;;;;;;;;;;;;;5076574;28;19911;-76
2023/10/03 02:23:30;;;;;;;;;;;;;;;;;;5094354;28;19908;-76
2023/10/03 02:25:56;;;;;;;;;;;;;;;;;;5094670;28;19911;-76
2023/10/03 02:28:22;;;;;;;;;;;;;;;;;;5094576;28;19904;-76
2023/10/03 02:30:48;;;;;;;;;;;;;;;;;;5094211;28;19910;-76
2023/10/03 02:33:15;;;;;;;;;;;;;;;;;;5094565;28;19904;-76
2023/10/03 02:35:42;;;;;;;;;;;;;;;;;;5094782;28;19908;-76
2023/10/03 02:41:11;;;;;;;;;;;;;;;;;;5012739;28;19906;-76
2023/10/03 02:43:43;;;;;;;;;;;;;;;;;;5081150;28;19998;-76
2023/10/03 02:46:12;;;;;;;;;;;;;;;;;;5098022;28;19911;-75
2023/10/03 02:48:38;;;;;;;;;;;;;;;;;;5079120;28;20359;-76
2023/10/03 02:51:05;;;;;;;;;;;;;;;;;;5093679;28;19904;-76
2023/10/03 02:53:31;;;;;;;;;;;;;;;;;;5076017;28;19904;-76
2023/10/03 02:55:58;;;;;;;;;;;;;;;;;;5094113;28;19934;-76
2023/10/03 02:58:24;;;;;;;;;;;;;;;;;;5075552;28;19987;-76
2023/10/03 03:00:50;;;;;;;;;;;;;;;;;;5094103;28;20391;-76
2023/10/03 03:03:16;;;;;;;;;;;;;;;;;;5094577;28;19915;-76
2023/10/03 03:05:43;;;;;;;;;;;;;;;;;;5093644;28;19985;-76
2023/10/03 03:10:50;;;;;;;;;;;;;;;;;;5093995;28;19915;-77
2023/10/03 03:13:16;;;;;;;;;;;;;;;;;;5093613;28;19908;-76
2023/10/03 03:15:51;;;;;;;;;;;;;;;;;;5093657;28;19923;-77
2023/10/03 03:18:19;;;;;;;;;;;;;;;;;;5094173;28;19904;-75
2023/10/03 03:20:49;;;;;;;;;;;;;;;;;;5093653;28;19947;-76
2023/10/03 03:23:16;;;;;;;;;;;;;;;;;;5094233;28;19905;-76
2023/10/03 03:25:43;;;;;;;;;;;;;;;;;;5094058;28;19939;-77
2023/10/03 03:28:15;;;;;;;;;;;;;;;;;;5093471;28;19908;-77
2023/10/03 03:30:45;;;;;;;;;;;;;;;;;;5076165;28;20253;-77
2023/10/03 03:33:11;;;;;;;;;;;;;;;;;;5093436;28;20373;-77
2023/10/03 03:35:41;;;;;;;;;;;;;;;;;;5093719;28;20252;-77
2023/10/03 03:38:07;;;;;;;;;;;;;;;;;;5093746;28;19955;-77
2023/10/03 03:40:34;;;;;;;;;;;;;;;;;;5093450;28;20268;-77
2023/10/03 03:43:00;;;;;;;;;;;;;;;;;;5093638;28;19904;-77
2023/10/03 03:45:26;;;;;;;;;;;;;;;;;;5093672;28;19931;-77
2023/10/03 03:47:52;;;;;;;;;;;;;;;;;;5093383;28;19943;-77
2023/10/03 03:50:18;;;;;;;;;;;;;;;;;;5093698;28;20360;-77
2023/10/03 03:52:44;;;;;;;;;;;;;;;;;;5075494;28;19904;-77
2023/10/03 03:55:11;;;;;;;;;;;;;;;;;;5093090;28;19912;-76
2023/10/03 03:57:37;;;;;;;;;;;;;;;;;;5093515;28;19914;-76
2023/10/03 04:00:11;;;;;;;;;;;;;;;;;;5093589;28;19904;-77
2023/10/03 04:02:38;;;;;;;;;;;;;;;;;;5094758;28;20068;-76
2023/10/03 04:05:12;;;;;;;;;;;;;;;;;;5097464;28;19908;-76
2023/10/03 04:07:38;;;;;;;;;;;;;;;;;;5079738;28;20268;-76
2023/10/03 04:30:33;;;;;;;;;;;;;;;;;;5114546;27;20275;-74
2023/10/03 04:32:59;;;;;;;;;;;;;;;;;;5103953;28;20261;-76
2023/10/03 04:35:25;;;;;;;;;;;;;;;;;;5111400;28;19908;-77
2023/10/03 04:37:52;;;;;;;;;;;;;;;;;;5110116;28;19920;-75
2023/10/03 04:40:51;;;;;;;;;;;;;;;;;;5109729;28;20010;-75
2023/10/03 04:43:15;;;;;;;;;;;;;;;;;;5110289;28;20010;-75
2023/10/03 04:45:41;;;;;;;;;;;;;;;;;;5110079;28;19913;-75
2023/10/03 04:48:08;;;;;;;;;;;;;;;;;;5110562;28;19908;-76
2023/10/03 04:50:34;;;;;;;;;;;;;;;;;;5111158;28;19908;-75
2023/10/03 04:53:00;;;;;;;;;;;;;;;;;;5107782;28;19908;-75
2023/10/03 04:55:26;;;;;;;;;;;;;;;;;;5105464;28;19919;-75
2023/10/03 04:57:52;;;;;;;;;;;;;;;;;;5108810;28;19908;-75
2023/10/03 05:00:18;;;;;;;;;;;;;;;;;;5106437;28;19912;-74
2023/10/03 05:02:47;;;;;;;;;;;;;;;;;;5106900;28;19966;-75
2023/10/03 05:05:13;;;;;;;;;;;;;;;;;;5108829;28;20284;-75
2023/10/03 05:07:39;;;;;;;;;;;;;;;;;;5107437;28;19919;-75
2023/10/03 05:10:06;;;;;;;;;;;;;;;;;;5105809;28;19908;-75
2023/10/03 05:12:32;;;;;;;;;;;;;;;;;;5109921;28;19908;-76
2023/10/03 05:14:58;;;;;;;;;;;;;;;;;;5108797;28;19961;-76
2023/10/03 05:17:26;;;;;;;;;;;;;;;;;;5109848;28;19908;-76
2023/10/03 05:19:52;;;;;;;;;;;;;;;;;;5109360;28;20391;-76
2023/10/03 05:22:18;;;;;;;;;;;;;;;;;;5107322;28;19990;-76
2023/10/03 05:24:44;;;;;;;;;;;;;;;;;;5106860;28;20377;-71
2023/10/03 05:27:10;;;;;;;;;;;;;;;;;;5094205;28;20277;-70
2023/10/03 05:29:37;;;;;;;;;;;;;;;;;;5090406;28;19943;-68
2023/10/03 05:32:04;;;;;;;;;;;;;;;;;;5117885;27;19919;-69
2023/10/03 05:34:31;;;;;;;;;;;;;;;;;;5086792;28;19912;-74
2023/10/03 05:36:57;;;;;;;;;;;;;;;;;;5086342;28;19912;-72
2023/10/03 05:39:26;;;;;;;;;;;;;;;;;;5094122;28;20198;-73
2023/10/03 05:41:56;;;;;;;;;;;;;;;;;;5095329;28;19908;-68
2023/10/03 05:44:21;;;;;;;;;;;;;;;;;;5094877;28;19966;-69
2023/10/03 05:46:53;;;;;;;;;;;;;;;;;;5095942;28;19908;-69
2023/10/03 05:49:19;;;;;;;;;;;;;;;;;;5089363;28;21638;-71
2023/10/03 05:51:45;;;;;;;;;;;;;;;;;;5080964;28;19909;-72
2023/10/03 05:54:12;;;;;;;;;;;;;;;;;;5093159;28;19943;-76
2023/10/03 05:56:37;;;;;;;;;;;;;;;;;;5095147;28;19912;-75
2023/10/03 05:59:03;;;;;;;;;;;;;;;;;;5094708;28;20007;-74
2023/10/03 06:01:30;;;;;;;;;;;;;;;;;;5096043;28;19908;-74
2023/10/03 06:03:56;;;;;;;;;;;;;;;;;;5095806;28;20323;-75
2023/10/03 06:06:23;;;;;;;382.45;216.63;;;;;;;;;;5091949;28;20410;-73
2023/10/03 06:08:49;;;;;;;;;;;;;;;;;;5086553;28;20028;-72
2023/10/03 06:11:15;;;;;;;;;;;;;;;;;;5089715;28;20390;-75
2023/10/03 06:13:44;;;;;;;;;;;;;;;;;;5089546;28;20380;-74
2023/10/03 06:16:12;;;;;;;;;;;;;;;;;;5087739;28;19919;-74
2023/10/03 06:18:39;;;;;;;;;;;;;;;;;;5090121;28;19966;-82
2023/10/03 06:21:07;;;;;;;;;;;;;;;;;;5092838;28;19989;-75
2023/10/03 06:23:33;;;;;;;;;;;;;;;;;;5091322;28;20003;-74
2023/10/03 06:25:59;;;;;;;;;;;;;;;;;;5092431;28;20006;-76
2023/10/03 06:28:25;;;;;;;;;;;;;;;;;;5075613;28;19912;-74
2023/10/03 06:30:51;;;;;;;;;;;;;;;;;;5070136;28;20325;-72
2023/10/03 06:33:17;;;;;;;;;;;;;;;;;;5068635;28;19958;-75
2023/10/03 06:35:43;;;;;;;;;;;;;;;;;;5079245;28;20384;-73
2023/10/03 06:38:09;;;;;;;;;;;;;;;;;;5094874;28;20433;-75
2023/10/03 06:40:36;;;;;;;;;;;;;;;;;;5089220;28;20007;-76
2023/10/03 06:43:02;;;;;;;;;;;;;;;;;;5091331;28;20027;-73
2023/10/03 06:45:29;;;;;;;;;;;;;;;;;;5090128;28;19999;-72
2023/10/03 06:47:55;;;;;;;;;;;;;;;;;;5091319;28;19954;-72
2023/10/03 06:50:23;;;;;;;;;;;;;;;;;;5090789;28;19913;-73
2023/10/03 06:52:49;;;;;;;;;;;;;;;;;;5099621;28;19924;-74
2023/10/03 06:55:15;;;;;;;;;;;;;;;;;;5093927;28;19932;-74
2023/10/03 06:57:41;;;;;;;;;;;;;;;;;;5091768;28;19923;-76
2023/10/03 07:00:13;;;;;;;;;;;;;;;;;;5090936;28;20341;-77
2023/10/03 07:02:39;;;;;;;;;;;;;;;;;;5090472;28;19915;-72
2023/10/03 07:05:05;;;;;;;;;;;;;;;;;;5091039;28;19908;-74
2023/10/03 07:07:31;;;;;;;;;;;;;;;;;;5090442;28;19916;-75
2023/10/03 07:09:57;;;;;;;;;;;;;;;;;;5092654;28;19912;-78
2023/10/03 07:12:23;;;;;;;;;;;;;;;;;;5094594;28;20007;-79
2023/10/03 07:14:49;;;;;;;;;;;;;;;;;;5095119;28;19955;-77
2023/10/03 07:17:15;;;;;;;;;;;;;;;;;;5090517;28;19908;-76
2023/10/03 07:19:41;;;;;;;;;;;;;;;;;;5092377;28;19923;-76
2023/10/03 07:22:07;;;;;;;;;;;;;;;;;;5093374;28;20002;-75
2023/10/03 07:24:33;;;;;;;;;;;;;;;;;;5095949;28;19915;-76
2023/10/03 07:27:03;;;;;;;;;;;;;;;;;;5093841;28;19908;-75
2023/10/03 07:29:29;;;;;;;;;;;;;;;;;;5091249;28;19931;-76
2023/10/03 07:31:55;;;;;;;;;;;;;;;;;;5091648;28;20278;-75
2023/10/03 07:34:21;;;;;;;;;;;;;;;;;;5092203;28;20025;-75
2023/10/03 07:36:48;;;;;;;;;;;;;;;;;;5088921;28;20064;-77
2023/10/03 07:39:15;;;;;;;;;;;;;;;;;;5090606;28;19916;-75
2023/10/03 07:41:41;;;;;;;;;;;;;;;;;;5084533;28;20134;-75
2023/10/03 07:44:07;;;;;;;;;;;;;;;;;;5087589;28;20409;-74
2023/10/03 07:51:39;;;;;;;;;;;;;;;;;;5109575;27;20424;-75
2023/10/03 07:54:05;;;;;;;;;;;;;;;;;;5109492;28;19907;-73
2023/10/03 07:56:42;;;;;;;;;;;;;;;;;;5108082;28;20036;-73
2023/10/03 07:59:08;;;;;;;;;;;;;;;;;;5107678;28;19948;-74
2023/10/03 08:01:38;;;;;;;;;;;;;;;;;;5108399;28;20356;-73
2023/10/03 08:04:08;;;;;;;;;;;;;;;;;;5107213;28;20355;-77
2023/10/03 08:09:08;;;;;;;;;;;;;;;;;;5108984;27;20912;-73
2023/10/03 08:11:34;;;;;;;;;;;;;;;;;;5109256;28;19968;-72
2023/10/03 08:14:00;;;;;;;;;;;;;;;;;;5109624;28;20363;-75
2023/10/03 08:18:17;;;;;;;;;;;;;;;;;;5068131;28;20448;-74
2023/10/03 08:20:43;;;;;;;;;;;;;;;;;;5065864;28;19909;-72
2023/10/03 08:23:09;;;;;;;;;;;;;;;;;;5067487;28;20314;-75
2023/10/03 08:25:35;;;;;;;;;;;;;;;;;;5067617;28;20326;-72
2023/10/03 08:28:08;;;;;;;;;;;;;;;;;;5067009;28;19905;-72
2023/10/03 08:30:35;;;;;;;;;;;;;;;;;;5066883;28;20237;-75
2023/10/03 08:33:04;;;;;;;;;;;;;;;;;;5067402;28;19908;-73
2023/10/03 08:35:40;;;;;;;;;;;;;;;;;;5067157;28;19915;-73
2023/10/03 08:38:06;;;;;;;;;;;;;;;;;;5067598;28;20369;-73
2023/10/03 08:40:32;;;;;;;;;;;;;;;;;;5068204;28;19966;-72
2023/10/03 08:42:58;;;;;;;;;;;;;;;;;;5062985;28;19944;-75
2023/10/03 08:45:25;;;;;;;;;;;;;;;;;;5066509;28;20254;-73
2023/10/03 08:47:51;;;;;;;;;;;;;;;;;;5067053;28;19948;-72
2023/10/03 08:50:29;;;;;;;;;;;;;;;;;;5068435;28;19952;-74
2023/10/03 08:52:56;;;;;;;;;;;;;;;;;;5066524;28;19904;-74
2023/10/03 08:55:23;;;;;;;;;;;;;;;;;;5076827;28;19915;-74
2023/10/03 08:57:49;;;;;;;;;;;;;;;;;;5067582;28;19969;-73
2023/10/03 09:00:15;;;;;;;;;;;;;;;;;;5066324;28;19995;-72
2023/10/03 09:02:47;;;;;;;;;;;;;;;;;;5065989;28;20544;-72
2023/10/03 09:05:15;;;;;;;;;;;;;;;;;;5065119;28;19909;-75
2023/10/03 09:07:43;;;;;;;;;;;;;;;;;;5064780;28;19904;-71
2023/10/03 09:10:09;;;;;;;;;;;;;;;;;;5061928;28;19917;-71
2023/10/03 09:12:35;;;;;;;;;;;;;;;;;;5067359;28;20242;-73
2023/10/03 09:15:01;;;;;;;;;;;;;;;;;;5066129;28;20382;-74
2023/10/03 09:17:27;;;;;;;;;;;;;;;;;;5064517;28;19924;-74
2023/10/03 09:19:52;;;;;;;;;;;;;;;;;;5066946;28;19916;-74
2023/10/03 09:22:18;;;;;;;;;;;;;;;;;;5066539;28;19936;-74
2023/10/03 09:24:44;;;;;;;;;;;;;;;;;;5064348;28;19924;-74
2023/10/03 09:27:11;;;;;;;;;;;;;;;;;;5066581;28;20334;-72
2023/10/03 09:29:37;;;;;;;;;;;;;;;;;;5047747;28;19909;-72
2023/10/03 09:32:23;;;;;;;;;;;;;;;;;;5036477;28;19909;-70
2023/10/03 09:35:09;;;;;;;;;;;;;;;;;;5033746;28;20389;-71
2023/10/03 09:37:35;;;;;;;;;;;;;;;;;;5052595;28;19916;-71
2023/10/03 09:40:16;;;;;;;;;;;;;;;;;;5044334;28;19912;-70
2023/10/03 09:42:48;;;;;;;;;;;;;;;;;;5049541;28;19940;-74
2023/10/03 09:45:17;;;;;;;;;;;;;;;;;;5052798;28;19908;-72
2023/10/03 09:47:42;;;;;;;;;;;;;;;;;;5044159;28;20015;-72
2023/10/03 09:50:09;;;;;;;;;;;;;;;;;;5052247;28;19992;-71
2023/10/03 09:52:35;;;;;;;;;;;;;;;;;;5051777;28;20380;-73
2023/10/03 09:55:17;;;;;;;;;;;;;;;;;;5039391;28;19917;-71
2023/10/03 09:57:43;;;;;;;;;;;;;;;;;;5045414;28;19916;-71
2023/10/03 10:00:23;;;;;;;;;;;;;;;;;;5043735;28;19908;-73
2023/10/03 10:02:49;;;;;;;;;;;;;;;;;;5052784;28;19917;-73
2023/10/03 10:05:19;;;;;;;;;;;;;;;;;;5052388;28;19908;-72
2023/10/03 10:07:49;;;;;;;;;;;;;;;;;;5051394;28;19916;-72
2023/10/03 10:10:19;;;;;;;;;;;;;;;;;;5052053;28;19924;-72
2023/10/03 10:12:45;;;;;;;;;;;;;;;;;;5050529;28;19970;-72
2023/10/03 10:17:37;;;;;;;;;;;;;;;;;;5059662;28;19917;-73
2023/10/03 10:20:03;;;;;;;;;;;;;;;;;;5050568;28;19904;-72
2023/10/03 10:22:29;;;;;;;;;;;;;;;;;;5047521;28;19920;-73
2023/10/03 10:24:55;;;;;;;;;;;;;;;;;;5042940;28;19908;-71
2023/10/03 10:27:21;;;;;;;;;;;;;;;;;;5042705;28;19966;-70
2023/10/03 10:29:47;;;;;;;;;;;;;;;;;;5054679;28;19962;-71
2023/10/03 10:32:13;;;;;;;;;;;;;;;;;;5050119;28;19915;-73
2023/10/03 10:34:40;;;;;;;;;;;;;;;;;;5053553;28;19909;-71
2023/10/03 10:37:09;;;;;;;;;;;;;;;;;;5053407;28;19923;-69
2023/10/03 10:39:35;;;;;;;;;;;;;;;;;;5051817;28;19908;-70
2023/10/03 10:42:01;;;;;;;;;;;;;;;;;;5054413;28;19915;-72
2023/10/03 10:44:27;;;;;;;;;;;;;;;;;;5053943;28;20042;-72
2023/10/03 10:46:53;;;;;;;;;;;;;;;;;;5040862;28;19999;-73
2023/10/03 10:49:19;;;;;;;;;;;;;;;;;;5049993;28;19912;-74
2023/10/03 10:51:45;;;;;;;;;;;;;;;;;;5050562;28;19905;-74
2023/10/03 10:54:11;;;;;;;;;;;;;;;;;;5049265;28;19913;-72
2023/10/03 10:56:38;;;;;;;;;;;;;;;;;;5045116;28;19917;-73
2023/10/03 10:59:07;;;;;;;;;;;;;;;;;;5047259;28;20495;-71
2023/10/03 11:01:33;;;;;;;;;;;;;;;;;;5048858;28;19918;-71
2023/10/03 11:03:59;;;;;;;;;;;;;;;;;;5050455;28;19915;-71
2023/10/03 11:06:25;;;;;;;;;;;;;;;;;;5044431;28;19912;-71
2023/10/03 11:08:51;;;;;;;;;;;;;;;;;;5045800;28;19911;-73
2023/10/03 11:11:19;;;;;;;;;;;;;;;;;;5041251;28;19999;-70
2023/10/03 11:13:48;;;;;;;;;;;;;;;;;;5048374;28;20638;-70
2023/10/03 11:16:14;;;;;;;;;;;;;;;;;;5049784;28;19924;-74
2023/10/03 11:18:40;;;;;;;;;;;;;;;;;;5049850;28;19913;-71
2023/10/03 11:21:08;;;;;;;;;;;;;;;;;;5049380;28;19905;-73
2023/10/03 11:23:34;;;;;;;;;;;;;;;;;;5045891;28;19958;-71
2023/10/03 11:26:00;;;;;;;;;;;;;;;;;;5046345;28;19908;-69
2023/10/03 11:28:29;;;;;;;;;;;;;;;;;;5050342;28;20415;-71
2023/10/03 11:30:55;;;;;;;;;;;;;;;;;;5050443;28;19904;-70
2023/10/03 11:33:21;;;;;;;;;;;;;;;;;;5047492;28;20382;-70
2023/10/03 11:35:47;;;;;;;;;;;;;;;;;;5048461;28;19908;-72
2023/10/03 11:38:13;;;;;;;;;;;;;;;;;;5054000;28;19919;-72
2023/10/03 11:40:39;;;;;;;;;;;;;;;;;;5048448;28;19931;-71
2023/10/03 11:43:08;;;;;;;;;;;;;;;;;;5050193;28;19912;-72
2023/10/03 11:45:34;;;;;;;;;;;;;;;;;;5055646;28;20007;-73
2023/10/03 11:48:01;;;;;;;;;;;;;;;;;;5051120;28;19950;-72
2023/10/03 11:50:27;;;;;;;;;;;;;;;;;;5051796;28;19912;-72
2023/10/03 11:52:54;;;;;;;;;;;;;;;;;;5052241;28;19909;-79
2023/10/03 11:55:20;;;;;;;;;;;;;;;;;;5053560;28;20390;-73
2023/10/03 11:57:46;;;;;;;;;;;;;;;;;;5050008;28;19916;-73
2023/10/03 12:00:14;;;;;;;;;;;;;;;;;;5049010;28;19917;-70
2023/10/03 12:02:40;;;;;;;;;;;;;;;;;;5051793;28;19916;-70
2023/10/03 12:05:06;;;;;;;;;;;;;;;;;;5051788;28;19905;-73
2023/10/03 12:07:32;;;;;;;;;;;;;;;;;;5049710;28;19991;-71
2023/10/03 12:09:59;;;;;;;;;;;;;;;;;;5050425;28;19920;-72
2023/10/03 12:12:26;;;;;;;;;;;;;;;;;;5053070;28;20007;-71
2023/10/03 12:14:52;;;;;;;;;;;;;;;;;;5050988;28;19909;-73
2023/10/03 12:17:18;;;;;;;;;;;;;;;;;;5049421;28;20459;-72
2023/10/03 12:19:44;;;;;;;;;;;;;;;;;;5050096;28;19967;-71
2023/10/03 12:22:10;;;;;;;;;;;;;;;;;;5065630;28;19951;-71
2023/10/03 12:24:36;;;;;;;;;;;;;;;;;;5056387;28;19967;-72
2023/10/03 12:27:04;;;;;;;;;;;;;;;;;;5052085;28;19912;-72
2023/10/03 12:29:32;;;;;;;;;;;;;;;;;;5051551;28;19916;-71
2023/10/03 12:31:58;;;;;;;;;;;;;;;;;;5051700;28;20031;-71
2023/10/03 12:34:26;;;;;;;;;;;;;;;;;;5051581;28;19917;-72
2023/10/03 12:36:52;;;;;;;;;;;;;;;;;;5050588;28;19959;-71
2023/10/03 12:39:20;;;;;;;;;;;;;;;;;;5049491;28;19951;-72
2023/10/03 12:41:46;;;;;;;;;;;;;;;;;;5051707;28;19912;-71
2023/10/03 12:44:12;;;;;;;;;;;;;;;;;;5049735;28;19913;-72
2023/10/03 12:46:38;;;;;;;;;;;;;;;;;;5049914;28;20379;-71
2023/10/03 12:49:06;;;;;;;;;;;;;;;;;;5052203;28;20371;-73
2023/10/03 12:51:33;;;;;;;;;;;;;;;;;;5049514;28;19954;-73
2023/10/03 12:53:58;;;;;;;;;;;;;;;;;;5050775;28;19904;-71
2023/10/03 12:56:24;;;;;;;;;;;;;;;;;;5051157;28;19909;-76
2023/10/03 12:58:50;;;;;;;;;;;;;;;;;;5051164;28;19995;-74
2023/10/03 13:01:16;;;;;;;;;;;;;;;;;;5050837;28;19905;-75
2023/10/03 13:03:46;;;;;;;;;;;;;;;;;;5052593;28;19963;-76
2023/10/03 13:06:14;;;;;;;;;;;;;;;;;;5054652;28;19940;-74
2023/10/03 13:08:42;;;;;;;;;;;;;;;;;;5055623;28;19927;-74
2023/10/03 13:11:08;;;;;;;;;;;;;;;;;;5056629;28;19947;-74
2023/10/03 13:13:35;;;;;;;;;;;;;;;;;;5056574;28;20316;-74
2023/10/03 13:16:01;;;;;;;;;;;;;;;;;;5054456;28;20315;-74
2023/10/03 13:18:27;;;;;;;;;;;;;;;;;;5056124;28;19931;-74
2023/10/03 13:20:53;;;;;;;;;;;;;;;;;;5056368;28;19905;-74
2023/10/03 13:23:19;;;;;;;;;;;;;;;;;;5056600;28;19909;-74
2023/10/03 13:25:45;;;;;;;;;;;;;;;;;;5056541;28;20003;-74
2023/10/03 13:28:11;;;;;;;;;;;;;;;;;;5056071;28;19940;-74
2023/10/03 13:30:37;;;;;;;;;;;;;;;;;;5056494;28;19905;-74
2023/10/03 13:33:03;;;;;;;;;;;;;;;;;;5055052;28;20042;-74
2023/10/03 13:35:30;;;;;;;;;;;;;;;;;;5056219;28;20265;-74
2023/10/03 13:37:56;;;;;;;;;;;;;;;;;;5055005;28;19916;-74
2023/10/03 13:40:22;;;;;;;;;;;;;;;;;;5056456;28;19905;-74
2023/10/03 13:42:48;;;;;;;;;;;;;;;;;;5055975;28;19905;-74
2023/10/03 13:45:14;;;;;;;;;;;;;;;;;;5056427;28;19937;-74
2023/10/03 13:47:41;;;;;;;;;;;;;;;;;;5056193;28;19939;-75
2023/10/03 13:50:09;;;;;;;;;;;;;;;;;;5054034;28;19924;-75
2023/10/03 13:52:35;;;;;;;;;;;;;;;;;;5054560;28;20430;-75
2023/10/03 13:55:06;;;;;;;;;;;;;;;;;;5054207;28;20372;-75
2023/10/03 13:57:32;;;;;;;;;;;;;;;;;;5055643;28;19935;-75
2023/10/03 13:59:58;;;;;;;;;;;;;;;;;;5056397;28;19904;-75
2023/10/03 14:02:24;;;;;;;;;;;;;;;;;;5055658;28;19991;-75
2023/10/03 14:04:50;;;;;;;;;;;;;;;;;;5055198;28;19909;-75
2023/10/03 14:07:16;;;;;;;;;;;;;;;;;;5051451;28;19905;-75
2023/10/03 14:09:42;;;;;;;;;;;;;;;;;;5050382;28;19923;-75
2023/10/03 14:12:08;;;;;;;;;;;;;;;;;;5051421;28;19905;-74
2023/10/03 14:14:34;;;;;;;;;;;;;;;;;;5051786;28;19935;-74
2023/10/03 14:17:03;;;;;;;;;;;;;;;;;;5050766;28;19921;-75
2023/10/03 14:19:29;;;;;;;;;;;;;;;;;;5053010;28;19916;-74
2023/10/03 14:21:55;;;;;;;;;;;;;;;;;;5052499;28;19905;-75
2023/10/03 14:24:21;;;;;;;;;;;;;;;;;;5054647;28;19997;-75
2023/10/03 14:26:47;;;;;;;;;;;;;;;;;;5055240;28;19905;-75
2023/10/03 14:29:13;;;;;;;;;;;;;;;;;;5055189;28;19912;-75
2023/10/03 14:31:39;;;;;;;;;;;;;;;;;;5055040;28;19999;-75
2023/10/03 14:34:05;;;;;;;;;;;;;;;;;;5055429;28;19931;-75
2023/10/03 14:36:32;;;;;;;;;;;;;;;;;;5055345;28;19913;-75
2023/10/03 14:38:58;;;;;;;;;;;;;;;;;;5054945;28;19947;-75
2023/10/03 14:41:24;;;;;;;;;;;;;;;;;;5055187;28;19905;-75
2023/10/03 14:43:50;;;;;;;;;;;;;;;;;;5055257;28;20404;-75
2023/10/03 14:46:16;;;;;;;;;;;;;;;;;;5054737;28;19959;-75
2023/10/03 14:48:42;;;;;;;;;;;;;;;;;;5055136;28;20035;-75
2023/10/03 14:51:08;;;;;;;;;;;;;;;;;;5055065;28;19946;-75
2023/10/03 14:53:34;;;;;;;;;;;;;;;;;;5054866;28;19950;-75
2023/10/03 14:56:00;;;;;;;;;;;;;;;;;;5054897;28;19908;-75
2023/10/03 14:58:26;;;;;;;;;;;;;;;;;;5054932;28;19909;-75
2023/10/03 15:00:52;;;;;;;;;;;;;;;;;;5054417;28;20379;-75
2023/10/03 15:03:21;;;;;;;;;;;;;;;;;;5054873;28;19912;-76
2023/10/03 15:05:48;;;;;;;;;;;;;;;;;;5053068;28;19989;-75
2023/10/03 15:08:14;;;;;;;;;;;;;;;;;;5054654;28;19911;-75
2023/10/03 15:10:40;;;;;;;;;;;;;;;;;;5054977;28;19904;-75
2023/10/03 15:13:06;;;;;;;;;;;;;;;;;;5054273;28;19959;-75
2023/10/03 15:15:32;;;;;;;;;;;;;;;;;;5054642;28;19909;-75
2023/10/03 15:17:58;;;;;;;;;;;;;;;;;;5054440;28;20365;-75
2023/10/03 15:20:26;;;;;;;;;;;;;;;;;;5054210;28;19949;-75
2023/10/03 15:22:52;;;;;;;;;;;;;;;;;;5054614;28;20000;-75
2023/10/03 15:25:18;;;;;;;;;;;;;;;;;;5054475;28;19944;-75
2023/10/03 15:27:44;;;;;;;;;;;;;;;;;;5053751;28;19905;-75
2023/10/03 15:30:10;;;;;;;;;;;;;;;;;;5054504;28;19954;-75
2023/10/03 15:32:35;;;;;;;;;;;;;;;;;;5054258;28;20011;-75
2023/10/03 15:35:04;;;;;;;;;;;;;;;;;;5053992;28;19911;-75
2023/10/03 15:37:30;;;;;;;;;;;;;;;;;;5054239;28;19923;-75
2023/10/03 15:39:56;;;;;;;;;;;;;;;;;;5054214;28;19905;-75
2023/10/03 15:42:22;;;;;;;;;;;;;;;;;;5053838;28;19912;-76
2023/10/03 15:44:48;;;;;;;;;;;;;;;;;;5054113;28;20280;-75
2023/10/03 15:47:14;;;;;;;;;;;;;;;;;;5053757;28;20275;-75
2023/10/03 15:49:40;;;;;;;;;;;;;;;;;;5052512;28;19908;-75
2023/10/03 15:52:06;;;;;;;;;;;;;;;;;;5054132;28;19999;-75
2023/10/03 15:54:32;;;;;;;;;;;;;;;;;;5052579;28;19909;-74
2023/10/03 15:56:58;;;;;;;;;;;;;;;;;;5053344;28;19909;-74
2023/10/03 15:59:25;;;;;;;;;;;;;;;;;;5052529;28;19905;-75
2023/10/03 16:01:51;;;;;;;;;;;;;;;;;;5053399;28;19952;-75
2023/10/03 16:04:17;;;;;;;;;;;;;;;;;;5052434;28;19912;-75
2023/10/03 16:06:43;;;;;;;;;;;;;;;;;;5052464;28;19905;-75
2023/10/03 16:09:12;;;;;;;;;;;;;;;;;;5051982;28;19919;-74
2023/10/03 16:11:40;;;;;;;;;;;;;;;;;;5053653;28;19940;-74
2023/10/03 16:14:07;;;;;;;;;;;;;;;;;;5053782;28;19950;-75
2023/10/03 16:16:36;;;;;;;;;;;;;;;;;;5051703;28;19936;-75
2023/10/03 16:19:03;;;;;;;;;;;;;;;;;;5052933;28;19905;-75
2023/10/03 16:21:29;;;;;;;;;;;;;;;;;;5053402;28;20368;-75
2023/10/03 16:23:55;;;;;;;;;;;;;;;;;;5053025;28;19905;-75
2023/10/03 16:26:22;;;;;;;;;;;;;;;;;;5053260;28;19904;-75
2023/10/03 16:28:48;;;;;;;;;;;;;;;;;;5053386;28;19904;-75
2023/10/03 16:31:14;;;;;;;;;;;;;;;;;;5052003;28;19905;-75
2023/10/03 16:33:40;;;;;;;;;;;;;;;;;;5053590;28;19975;-75
2023/10/03 16:36:07;;;;;;;;;;;;;;;;;;5053497;28;19948;-75
2023/10/03 16:38:33;;;;;;;;;;;;;;;;;;5054719;28;19911;-75
2023/10/03 16:40:59;;;;;;;;;;;;;;;;;;5057535;28;19914;-75
2023/10/03 16:43:26;;;;;;;;;;;;;;;;;;5057487;28;19905;-75
2023/10/03 16:45:52;;;;;;;;;;;;;;;;;;5057024;28;19905;-75
2023/10/03 16:48:18;;;;;;;;;;;;;;;;;;5057570;28;19952;-74
2023/10/03 16:50:44;;;;;;;;;;;;;;;;;;5056041;28;19955;-75
2023/10/03 16:53:10;;;;;;;;;;;;;;;;;;5056328;28;19909;-74
2023/10/03 16:55:37;;;;;;;;;;;;;;;;;;5057105;28;19950;-74
2023/10/03 16:58:03;;;;;;;;;;;;;;;;;;5056882;28;19957;-73
2023/10/03 17:00:29;;;;;;;;;;;;;;;;;;5057076;28;19912;-73
2023/10/03 17:02:55;;;;;;;;;;;;;;;;;;5057060;28;20046;-74
2023/10/03 17:05:21;;;;;;;;;;;;;;;;;;5056765;28;20380;-74
2023/10/03 17:07:47;;;;;;;;;;;;;;;;;;5056964;28;19905;-74
2023/10/03 17:10:15;;;;;;;;;;;;;;;;;;5056906;28;19905;-73
2023/10/03 17:12:41;;;;;;;;;;;;;;;;;;5056436;28;19912;-74
2023/10/03 17:15:10;;;;;;;;;;;;;;;;;;5054489;28;19904;-74
2023/10/03 17:17:36;;;;;;;;;;;;;;;;;;5055767;28;20034;-75
2023/10/03 17:20:03;;;;;;;;;;;;;;;;;;5055770;28;20376;-74